sensor_id;sensor_type;location;lat;lon;timestamp;P1;durP1;ratioP1;P2;durP2;ratioP2
35839;SDS011;35514;50.504;30.500;2023-03-20T00:00:18;52.55;;;19.00;;
35839;SDS011;35514;50.504;30.500;2023-03-20T00:02:47;61.35;;;19.70;;
35839;SDS011;35514;50.504;30.500;2023-03-20T00:05:18;56.90;;;20.55;;
35839;SDS011;35514;50.504;30.500;2023-03-20T00:07:46;60.20;;;21.50;;
35839;SDS011;35514;50.504;30.500;2023-03-20T00:10:15;52.05;;;19.13;;
35839;SDS011;35514;50.504;30.500;2023-03-20T00:12:46;67.47;;;22.90;;
35839;SDS011;35514;50.504;30.500;2023-03-20T00:15:18;67.40;;;23.65;;
35839;SDS011;35514;50.504;30.500;2023-03-20T00:17:48;70.97;;;24.70;;
35839;SDS011;35514;50.504;30.500;2023-03-20T00:20:16;72.32;;;23.73;;
35839;SDS011;35514;50.504;30.500;2023-03-20T00:22:44;79.70;;;26.02;;
35839;SDS011;35514;50.504;30.500;2023-03-20T00:25:12;83.00;;;27.88;;
35839;SDS011;35514;50.504;30.500;2023-03-20T00:27:41;77.68;;;26.33;;
35839;SDS011;35514;50.504;30.500;2023-03-20T00:30:15;75.95;;;23.77;;
35839;SDS011;35514;50.504;30.500;2023-03-20T00:32:46;68.20;;;22.13;;
35839;SDS011;35514;50.504;30.500;2023-03-20T00:35:16;76.82;;;24.50;;
35839;SDS011;35514;50.504;30.500;2023-03-20T00:37:44;65.28;;;24.20;;
35839;SDS011;35514;50.504;30.500;2023-03-20T00:40:12;64.90;;;22.50;;
35839;SDS011;35514;50.504;30.500;2023-03-20T00:42:39;61.90;;;23.67;;
35839;SDS011;35514;50.504;30.500;2023-03-20T00:45:08;76.65;;;27.25;;
35839;SDS011;35514;50.504;30.500;2023-03-20T00:47:38;66.20;;;24.88;;
35839;SDS011;35514;50.504;30.500;2023-03-20T00:50:13;69.78;;;22.70;;
35839;SDS011;35514;50.504;30.500;2023-03-20T00:52:43;67.97;;;25.20;;
35839;SDS011;35514;50.504;30.500;2023-03-20T00:55:11;58.97;;;20.83;;
35839;SDS011;35514;50.504;30.500;2023-03-20T00:57:41;58.95;;;20.27;;
35839;SDS011;35514;50.504;30.500;2023-03-20T01:00:17;55.38;;;19.73;;
35839;SDS011;35514;50.504;30.500;2023-03-20T01:02:46;53.20;;;20.42;;
35839;SDS011;35514;50.504;30.500;2023-03-20T01:05:15;50.63;;;18.20;;
35839;SDS011;35514;50.504;30.500;2023-03-20T01:07:43;62.72;;;21.48;;
35839;SDS011;35514;50.504;30.500;2023-03-20T01:10:11;69.13;;;23.88;;
35839;SDS011;35514;50.504;30.500;2023-03-20T01:12:38;62.50;;;21.33;;
35839;SDS011;35514;50.504;30.500;2023-03-20T01:15:15;64.30;;;22.38;;
35839;SDS011;35514;50.504;30.500;2023-03-20T01:17:43;73.93;;;24.23;;
35839;SDS011;35514;50.504;30.500;2023-03-20T01:20:18;75.75;;;24.33;;
35839;SDS011;35514;50.504;30.500;2023-03-20T01:22:46;83.03;;;28.23;;
35839;SDS011;35514;50.504;30.500;2023-03-20T01:25:14;87.00;;;29.95;;
35839;SDS011;35514;50.504;30.500;2023-03-20T01:27:42;85.75;;;31.20;;
35839;SDS011;35514;50.504;30.500;2023-03-20T01:30:14;86.03;;;30.05;;
35839;SDS011;35514;50.504;30.500;2023-03-20T01:32:42;88.38;;;29.33;;
35839;SDS011;35514;50.504;30.500;2023-03-20T01:35:12;84.75;;;31.45;;
35839;SDS011;35514;50.504;30.500;2023-03-20T01:37:41;97.93;;;30.45;;
35839;SDS011;35514;50.504;30.500;2023-03-20T01:40:12;80.07;;;28.75;;
35839;SDS011;35514;50.504;30.500;2023-03-20T01:42:42;85.13;;;28.17;;
35839;SDS011;35514;50.504;30.500;2023-03-20T01:45:12;78.85;;;29.38;;
35839;SDS011;35514;50.504;30.500;2023-03-20T01:47:42;83.45;;;28.13;;
35839;SDS011;35514;50.504;30.500;2023-03-20T01:50:20;89.45;;;30.25;;
35839;SDS011;35514;50.504;30.500;2023-03-20T01:52:50;78.40;;;27.08;;
35839;SDS011;35514;50.504;30.500;2023-03-20T01:55:18;99.40;;;31.90;;
35839;SDS011;35514;50.504;30.500;2023-03-20T01:57:47;96.28;;;29.65;;
35839;SDS011;35514;50.504;30.500;2023-03-20T02:00:15;99.65;;;31.38;;
35839;SDS011;35514;50.504;30.500;2023-03-20T02:02:45;102.28;;;31.85;;
35839;SDS011;35514;50.504;30.500;2023-03-20T02:05:14;88.30;;;29.90;;
35839;SDS011;35514;50.504;30.500;2023-03-20T02:07:44;79.55;;;27.50;;
35839;SDS011;35514;50.504;30.500;2023-03-20T02:10:14;105.15;;;31.35;;
35839;SDS011;35514;50.504;30.500;2023-03-20T02:12:42;81.93;;;30.98;;
35839;SDS011;35514;50.504;30.500;2023-03-20T02:15:10;87.97;;;28.65;;
35839;SDS011;35514;50.504;30.500;2023-03-20T02:17:38;98.18;;;27.27;;
35839;SDS011;35514;50.504;30.500;2023-03-20T02:20:11;72.97;;;25.20;;
35839;SDS011;35514;50.504;30.500;2023-03-20T02:22:55;86.18;;;29.17;;
35839;SDS011;35514;50.504;30.500;2023-03-20T02:31:05;71.10;;;23.98;;
35839;SDS011;35514;50.504;30.500;2023-03-20T02:33:58;72.53;;;24.98;;
35839;SDS011;35514;50.504;30.500;2023-03-20T02:36:33;70.40;;;24.48;;
35839;SDS011;35514;50.504;30.500;2023-03-20T02:39:15;64.40;;;23.38;;
35839;SDS011;35514;50.504;30.500;2023-03-20T02:41:47;91.43;;;29.35;;
35839;SDS011;35514;50.504;30.500;2023-03-20T02:44:19;86.22;;;27.45;;
35839;SDS011;35514;50.504;30.500;2023-03-20T02:46:51;82.10;;;28.15;;
35839;SDS011;35514;50.504;30.500;2023-03-20T02:49:22;97.93;;;28.63;;
35839;SDS011;35514;50.504;30.500;2023-03-20T02:51:57;87.13;;;29.17;;
35839;SDS011;35514;50.504;30.500;2023-03-20T02:54:30;87.13;;;29.75;;
35839;SDS011;35514;50.504;30.500;2023-03-20T02:56:59;95.78;;;30.65;;
35839;SDS011;35514;50.504;30.500;2023-03-20T02:59:31;88.15;;;27.85;;
35839;SDS011;35514;50.504;30.500;2023-03-20T03:02:03;79.10;;;30.17;;
35839;SDS011;35514;50.504;30.500;2023-03-20T03:04:33;90.38;;;29.42;;
35839;SDS011;35514;50.504;30.500;2023-03-20T03:07:02;104.55;;;31.75;;
35839;SDS011;35514;50.504;30.500;2023-03-20T03:09:33;97.45;;;30.90;;
35839;SDS011;35514;50.504;30.500;2023-03-20T03:12:02;91.70;;;28.80;;
35839;SDS011;35514;50.504;30.500;2023-03-20T03:14:33;91.28;;;29.67;;
35839;SDS011;35514;50.504;30.500;2023-03-20T03:17:02;93.80;;;29.40;;
35839;SDS011;35514;50.504;30.500;2023-03-20T03:19:31;89.95;;;28.58;;
35839;SDS011;35514;50.504;30.500;2023-03-20T03:22:00;91.50;;;30.73;;
35839;SDS011;35514;50.504;30.500;2023-03-20T03:24:28;89.40;;;32.55;;
35839;SDS011;35514;50.504;30.500;2023-03-20T03:27:11;106.03;;;32.33;;
35839;SDS011;35514;50.504;30.500;2023-03-20T03:29:42;99.30;;;35.38;;
35839;SDS011;35514;50.504;30.500;2023-03-20T03:32:21;95.47;;;33.40;;
35839;SDS011;35514;50.504;30.500;2023-03-20T03:34:49;110.03;;;36.88;;
35839;SDS011;35514;50.504;30.500;2023-03-20T03:37:18;179.52;;;55.65;;
35839;SDS011;35514;50.504;30.500;2023-03-20T03:39:48;156.43;;;51.47;;
35839;SDS011;35514;50.504;30.500;2023-03-20T03:42:20;144.68;;;46.13;;
35839;SDS011;35514;50.504;30.500;2023-03-20T03:44:50;134.68;;;44.17;;
35839;SDS011;35514;50.504;30.500;2023-03-20T03:47:20;130.20;;;42.83;;
35839;SDS011;35514;50.504;30.500;2023-03-20T03:49:50;108.43;;;34.08;;
35839;SDS011;35514;50.504;30.500;2023-03-20T03:52:19;92.50;;;33.60;;
35839;SDS011;35514;50.504;30.500;2023-03-20T03:54:48;97.63;;;32.28;;
35839;SDS011;35514;50.504;30.500;2023-03-20T03:57:21;104.55;;;35.15;;
35839;SDS011;35514;50.504;30.500;2023-03-20T03:59:50;95.50;;;34.10;;
35839;SDS011;35514;50.504;30.500;2023-03-20T04:02:19;99.10;;;36.25;;
35839;SDS011;35514;50.504;30.500;2023-03-20T04:04:49;128.90;;;41.45;;
35839;SDS011;35514;50.504;30.500;2023-03-20T04:07:17;121.88;;;41.17;;
35839;SDS011;35514;50.504;30.500;2023-03-20T04:09:44;131.23;;;45.22;;
35839;SDS011;35514;50.504;30.500;2023-03-20T04:12:19;134.57;;;46.83;;
35839;SDS011;35514;50.504;30.500;2023-03-20T04:14:54;131.52;;;43.17;;
35839;SDS011;35514;50.504;30.500;2023-03-20T04:17:22;113.20;;;42.70;;
35839;SDS011;35514;50.504;30.500;2023-03-20T04:19:49;121.68;;;41.90;;
35839;SDS011;35514;50.504;30.500;2023-03-20T04:22:17;116.03;;;41.75;;
35839;SDS011;35514;50.504;30.500;2023-03-20T04:24:44;108.05;;;41.25;;
35839;SDS011;35514;50.504;30.500;2023-03-20T04:27:12;118.93;;;42.47;;
35839;SDS011;35514;50.504;30.500;2023-03-20T04:29:40;121.28;;;40.83;;
35839;SDS011;35514;50.504;30.500;2023-03-20T04:32:08;115.93;;;38.22;;
35839;SDS011;35514;50.504;30.500;2023-03-20T04:34:36;120.43;;;39.30;;
35839;SDS011;35514;50.504;30.500;2023-03-20T04:37:04;108.22;;;38.67;;
35839;SDS011;35514;50.504;30.500;2023-03-20T04:39:34;94.95;;;35.35;;
35839;SDS011;35514;50.504;30.500;2023-03-20T04:42:05;144.02;;;45.30;;
35839;SDS011;35514;50.504;30.500;2023-03-20T04:44:34;98.60;;;34.25;;
35839;SDS011;35514;50.504;30.500;2023-03-20T04:47:03;87.43;;;31.50;;
35839;SDS011;35514;50.504;30.500;2023-03-20T04:49:33;102.35;;;35.05;;
35839;SDS011;35514;50.504;30.500;2023-03-20T04:52:01;84.70;;;26.50;;
35839;SDS011;35514;50.504;30.500;2023-03-20T04:54:28;84.70;;;27.52;;
35839;SDS011;35514;50.504;30.500;2023-03-20T04:56:56;82.97;;;29.67;;
35839;SDS011;35514;50.504;30.500;2023-03-20T04:59:23;86.53;;;28.83;;
35839;SDS011;35514;50.504;30.500;2023-03-20T05:01:51;98.00;;;33.55;;
35839;SDS011;35514;50.504;30.500;2023-03-20T05:04:21;89.90;;;32.85;;
35839;SDS011;35514;50.504;30.500;2023-03-20T05:06:50;87.00;;;31.48;;
35839;SDS011;35514;50.504;30.500;2023-03-20T05:09:20;85.97;;;32.00;;
35839;SDS011;35514;50.504;30.500;2023-03-20T05:11:48;75.45;;;30.15;;
35839;SDS011;35514;50.504;30.500;2023-03-20T05:14:40;77.68;;;29.65;;
35839;SDS011;35514;50.504;30.500;2023-03-20T05:17:07;76.68;;;28.80;;
35839;SDS011;35514;50.504;30.500;2023-03-20T05:19:35;88.13;;;31.35;;
35839;SDS011;35514;50.504;30.500;2023-03-20T05:22:05;72.28;;;28.05;;
35839;SDS011;35514;50.504;30.500;2023-03-20T05:24:32;72.28;;;28.55;;
35839;SDS011;35514;50.504;30.500;2023-03-20T05:27:00;84.63;;;31.95;;
35839;SDS011;35514;50.504;30.500;2023-03-20T05:29:27;72.40;;;28.67;;
35839;SDS011;35514;50.504;30.500;2023-03-20T05:31:56;67.45;;;25.95;;
35839;SDS011;35514;50.504;30.500;2023-03-20T05:34:24;64.65;;;24.88;;
35839;SDS011;35514;50.504;30.500;2023-03-20T05:36:53;64.68;;;25.70;;
35839;SDS011;35514;50.504;30.500;2023-03-20T05:39:22;57.05;;;23.35;;
35839;SDS011;35514;50.504;30.500;2023-03-20T05:41:49;52.72;;;23.67;;
35839;SDS011;35514;50.504;30.500;2023-03-20T05:44:17;50.95;;;19.63;;
35839;SDS011;35514;50.504;30.500;2023-03-20T05:46:45;52.67;;;21.27;;
35839;SDS011;35514;50.504;30.500;2023-03-20T05:49:12;43.67;;;19.42;;
35839;SDS011;35514;50.504;30.500;2023-03-20T05:51:40;49.15;;;18.98;;
35839;SDS011;35514;50.504;30.500;2023-03-20T05:54:07;37.20;;;16.02;;
35839;SDS011;35514;50.504;30.500;2023-03-20T05:56:36;45.05;;;18.67;;
35839;SDS011;35514;50.504;30.500;2023-03-20T05:59:04;44.22;;;18.90;;
35839;SDS011;35514;50.504;30.500;2023-03-20T06:01:31;38.65;;;18.13;;
35839;SDS011;35514;50.504;30.500;2023-03-20T06:03:59;36.17;;;18.08;;
35839;SDS011;35514;50.504;30.500;2023-03-20T06:06:26;37.83;;;16.50;;
35839;SDS011;35514;50.504;30.500;2023-03-20T06:08:54;39.90;;;16.80;;
35839;SDS011;35514;50.504;30.500;2023-03-20T06:11:22;35.67;;;15.50;;
35839;SDS011;35514;50.504;30.500;2023-03-20T06:13:50;37.15;;;16.27;;
35839;SDS011;35514;50.504;30.500;2023-03-20T06:16:19;39.05;;;16.98;;
35839;SDS011;35514;50.504;30.500;2023-03-20T06:18:47;36.78;;;16.83;;
35839;SDS011;35514;50.504;30.500;2023-03-20T06:21:15;42.25;;;17.58;;
35839;SDS011;35514;50.504;30.500;2023-03-20T06:23:43;37.88;;;18.55;;
35839;SDS011;35514;50.504;30.500;2023-03-20T06:26:10;36.25;;;17.67;;
35839;SDS011;35514;50.504;30.500;2023-03-20T06:28:38;37.42;;;17.77;;
35839;SDS011;35514;50.504;30.500;2023-03-20T06:31:07;36.03;;;17.08;;
35839;SDS011;35514;50.504;30.500;2023-03-20T06:33:35;37.17;;;18.90;;
35839;SDS011;35514;50.504;30.500;2023-03-20T06:36:03;38.97;;;19.65;;
35839;SDS011;35514;50.504;30.500;2023-03-20T06:38:33;39.30;;;16.75;;
35839;SDS011;35514;50.504;30.500;2023-03-20T06:41:00;38.75;;;17.70;;
35839;SDS011;35514;50.504;30.500;2023-03-20T06:43:28;41.40;;;18.67;;
35839;SDS011;35514;50.504;30.500;2023-03-20T06:45:56;40.22;;;18.15;;
35839;SDS011;35514;50.504;30.500;2023-03-20T06:48:24;39.85;;;17.77;;
35839;SDS011;35514;50.504;30.500;2023-03-20T06:50:52;34.90;;;17.65;;
35839;SDS011;35514;50.504;30.500;2023-03-20T06:53:20;35.40;;;18.23;;
35839;SDS011;35514;50.504;30.500;2023-03-20T06:55:48;37.10;;;17.75;;
35839;SDS011;35514;50.504;30.500;2023-03-20T06:58:17;34.53;;;16.70;;
35839;SDS011;35514;50.504;30.500;2023-03-20T07:00:52;37.20;;;18.30;;
35839;SDS011;35514;50.504;30.500;2023-03-20T07:03:20;36.47;;;18.35;;
35839;SDS011;35514;50.504;30.500;2023-03-20T07:05:49;39.58;;;19.33;;
35839;SDS011;35514;50.504;30.500;2023-03-20T07:08:17;40.33;;;18.30;;
35839;SDS011;35514;50.504;30.500;2023-03-20T07:10:44;37.10;;;18.42;;
35839;SDS011;35514;50.504;30.500;2023-03-20T07:13:12;39.45;;;19.08;;
35839;SDS011;35514;50.504;30.500;2023-03-20T07:15:40;36.90;;;19.95;;
35839;SDS011;35514;50.504;30.500;2023-03-20T07:18:28;37.65;;;19.98;;
35839;SDS011;35514;50.504;30.500;2023-03-20T07:21:01;48.15;;;21.58;;
35839;SDS011;35514;50.504;30.500;2023-03-20T07:23:30;41.20;;;19.80;;
35839;SDS011;35514;50.504;30.500;2023-03-20T07:25:59;46.05;;;22.30;;
35839;SDS011;35514;50.504;30.500;2023-03-20T07:28:27;40.05;;;20.77;;
35839;SDS011;35514;50.504;30.500;2023-03-20T07:30:55;46.90;;;21.73;;
35839;SDS011;35514;50.504;30.500;2023-03-20T07:33:22;44.05;;;21.27;;
35839;SDS011;35514;50.504;30.500;2023-03-20T07:35:53;43.38;;;22.02;;
35839;SDS011;35514;50.504;30.500;2023-03-20T07:38:22;48.58;;;21.83;;
35839;SDS011;35514;50.504;30.500;2023-03-20T07:40:52;53.60;;;24.48;;
35839;SDS011;35514;50.504;30.500;2023-03-20T07:43:19;46.78;;;22.20;;
35839;SDS011;35514;50.504;30.500;2023-03-20T07:45:47;47.38;;;23.80;;
35839;SDS011;35514;50.504;30.500;2023-03-20T07:48:15;43.88;;;20.98;;
35839;SDS011;35514;50.504;30.500;2023-03-20T07:50:45;41.85;;;22.38;;
35839;SDS011;35514;50.504;30.500;2023-03-20T07:53:13;39.28;;;20.25;;
35839;SDS011;35514;50.504;30.500;2023-03-20T07:55:42;41.42;;;22.33;;
35839;SDS011;35514;50.504;30.500;2023-03-20T07:58:10;42.33;;;21.27;;
35839;SDS011;35514;50.504;30.500;2023-03-20T08:00:37;39.08;;;20.50;;
35839;SDS011;35514;50.504;30.500;2023-03-20T08:03:05;38.88;;;19.92;;
35839;SDS011;35514;50.504;30.500;2023-03-20T08:05:32;37.95;;;19.83;;
35839;SDS011;35514;50.504;30.500;2023-03-20T08:08:01;42.63;;;19.10;;
35839;SDS011;35514;50.504;30.500;2023-03-20T08:10:29;39.92;;;20.45;;
35839;SDS011;35514;50.504;30.500;2023-03-20T08:12:58;37.50;;;19.52;;
35839;SDS011;35514;50.504;30.500;2023-03-20T08:15:26;39.45;;;20.02;;
35839;SDS011;35514;50.504;30.500;2023-03-20T08:17:54;34.55;;;18.33;;
35839;SDS011;35514;50.504;30.500;2023-03-20T08:20:23;37.25;;;19.20;;
35839;SDS011;35514;50.504;30.500;2023-03-20T08:22:51;29.85;;;17.15;;
35839;SDS011;35514;50.504;30.500;2023-03-20T08:25:19;30.98;;;17.02;;
35839;SDS011;35514;50.504;30.500;2023-03-20T08:27:47;33.33;;;16.60;;
35839;SDS011;35514;50.504;30.500;2023-03-20T08:30:16;38.85;;;16.15;;
35839;SDS011;35514;50.504;30.500;2023-03-20T08:32:43;30.73;;;15.82;;
35839;SDS011;35514;50.504;30.500;2023-03-20T08:35:11;34.75;;;14.23;;
35839;SDS011;35514;50.504;30.500;2023-03-20T08:37:57;26.17;;;12.77;;
35839;SDS011;35514;50.504;30.500;2023-03-20T08:40:25;23.63;;;12.10;;
35839;SDS011;35514;50.504;30.500;2023-03-20T08:42:52;26.02;;;10.85;;
35839;SDS011;35514;50.504;30.500;2023-03-20T08:45:21;22.98;;;10.30;;
35839;SDS011;35514;50.504;30.500;2023-03-20T08:47:51;26.58;;;10.10;;
35839;SDS011;35514;50.504;30.500;2023-03-20T08:50:20;22.98;;;9.85;;
35839;SDS011;35514;50.504;30.500;2023-03-20T08:52:47;17.23;;;8.00;;
35839;SDS011;35514;50.504;30.500;2023-03-20T08:55:15;22.33;;;9.43;;
35839;SDS011;35514;50.504;30.500;2023-03-20T08:58:11;16.50;;;7.88;;
35839;SDS011;35514;50.504;30.500;2023-03-20T09:00:42;17.77;;;8.10;;
35839;SDS011;35514;50.504;30.500;2023-03-20T09:03:10;18.80;;;7.05;;
35839;SDS011;35514;50.504;30.500;2023-03-20T09:05:44;19.35;;;9.57;;
35839;SDS011;35514;50.504;30.500;2023-03-20T09:08:11;21.80;;;9.75;;
35839;SDS011;35514;50.504;30.500;2023-03-20T09:10:39;19.67;;;7.65;;
35839;SDS011;35514;50.504;30.500;2023-03-20T09:13:07;24.08;;;8.82;;
35839;SDS011;35514;50.504;30.500;2023-03-20T09:15:53;20.23;;;7.45;;
35839;SDS011;35514;50.504;30.500;2023-03-20T09:18:22;12.52;;;6.75;;
35839;SDS011;35514;50.504;30.500;2023-03-20T09:20:50;14.10;;;6.70;;
35839;SDS011;35514;50.504;30.500;2023-03-20T09:23:17;11.40;;;6.47;;
35839;SDS011;35514;50.504;30.500;2023-03-20T09:25:45;11.75;;;5.88;;
35839;SDS011;35514;50.504;30.500;2023-03-20T09:28:14;10.13;;;5.05;;
35839;SDS011;35514;50.504;30.500;2023-03-20T09:30:42;8.38;;;4.05;;
35839;SDS011;35514;50.504;30.500;2023-03-20T09:33:36;10.10;;;5.40;;
35839;SDS011;35514;50.504;30.500;2023-03-20T09:36:28;8.30;;;4.88;;
35839;SDS011;35514;50.504;30.500;2023-03-20T09:38:56;11.10;;;5.85;;
35839;SDS011;35514;50.504;30.500;2023-03-20T09:41:25;14.45;;;5.90;;
35839;SDS011;35514;50.504;30.500;2023-03-20T09:43:57;15.63;;;7.97;;
35839;SDS011;35514;50.504;30.500;2023-03-20T09:49:19;18.15;;;7.60;;
35839;SDS011;35514;50.504;30.500;2023-03-20T09:51:52;14.77;;;8.48;;
35839;SDS011;35514;50.504;30.500;2023-03-20T09:54:22;18.50;;;8.35;;
35839;SDS011;35514;50.504;30.500;2023-03-20T09:56:51;14.80;;;8.07;;
35839;SDS011;35514;50.504;30.500;2023-03-20T09:59:20;20.13;;;8.80;;
35839;SDS011;35514;50.504;30.500;2023-03-20T10:01:50;17.80;;;7.35;;
35839;SDS011;35514;50.504;30.500;2023-03-20T10:04:20;16.08;;;7.72;;
35839;SDS011;35514;50.504;30.500;2023-03-20T10:06:50;20.00;;;7.25;;
35839;SDS011;35514;50.504;30.500;2023-03-20T10:09:19;19.83;;;7.88;;
35839;SDS011;35514;50.504;30.500;2023-03-20T10:12:00;18.63;;;7.40;;
35839;SDS011;35514;50.504;30.500;2023-03-20T10:17:03;13.82;;;6.80;;
35839;SDS011;35514;50.504;30.500;2023-03-20T10:20:00;12.98;;;6.05;;
35839;SDS011;35514;50.504;30.500;2023-03-20T10:22:31;10.68;;;5.55;;
35839;SDS011;35514;50.504;30.500;2023-03-20T10:25:02;12.98;;;6.15;;
35839;SDS011;35514;50.504;30.500;2023-03-20T10:27:36;12.50;;;6.85;;
35839;SDS011;35514;50.504;30.500;2023-03-20T10:30:11;11.95;;;6.63;;
35839;SDS011;35514;50.504;30.500;2023-03-20T10:32:46;11.15;;;6.68;;
35839;SDS011;35514;50.504;30.500;2023-03-20T10:35:19;14.75;;;6.70;;
35839;SDS011;35514;50.504;30.500;2023-03-20T10:38:15;11.40;;;6.88;;
35839;SDS011;35514;50.504;30.500;2023-03-20T10:40:46;15.80;;;7.47;;
35839;SDS011;35514;50.504;30.500;2023-03-20T10:43:15;14.80;;;7.28;;
35839;SDS011;35514;50.504;30.500;2023-03-20T10:45:45;13.00;;;7.45;;
35839;SDS011;35514;50.504;30.500;2023-03-20T10:48:15;14.70;;;6.82;;
35839;SDS011;35514;50.504;30.500;2023-03-20T10:50:45;17.90;;;7.80;;
35839;SDS011;35514;50.504;30.500;2023-03-20T10:53:40;15.18;;;7.95;;
35839;SDS011;35514;50.504;30.500;2023-03-20T10:56:10;15.88;;;9.18;;
35839;SDS011;35514;50.504;30.500;2023-03-20T10:58:46;12.50;;;7.60;;
35839;SDS011;35514;50.504;30.500;2023-03-20T11:01:38;17.60;;;8.50;;
35839;SDS011;35514;50.504;30.500;2023-03-20T11:04:06;20.23;;;9.65;;
35839;SDS011;35514;50.504;30.500;2023-03-20T11:06:36;13.60;;;7.68;;
35839;SDS011;35514;50.504;30.500;2023-03-20T11:09:09;15.95;;;8.23;;
35839;SDS011;35514;50.504;30.500;2023-03-20T11:11:37;18.77;;;9.07;;
35839;SDS011;35514;50.504;30.500;2023-03-20T11:14:13;16.35;;;9.65;;
35839;SDS011;35514;50.504;30.500;2023-03-20T11:16:46;17.55;;;8.98;;
35839;SDS011;35514;50.504;30.500;2023-03-20T11:19:15;16.50;;;9.38;;
35839;SDS011;35514;50.504;30.500;2023-03-20T11:21:47;17.48;;;9.93;;
35839;SDS011;35514;50.504;30.500;2023-03-20T11:24:25;18.13;;;9.07;;
35839;SDS011;35514;50.504;30.500;2023-03-20T11:26:53;15.57;;;8.75;;
35839;SDS011;35514;50.504;30.500;2023-03-20T11:29:29;16.80;;;8.85;;
35839;SDS011;35514;50.504;30.500;2023-03-20T11:34:28;17.38;;;7.57;;
35839;SDS011;35514;50.504;30.500;2023-03-20T11:39:37;19.23;;;9.02;;
35839;SDS011;35514;50.504;30.500;2023-03-20T11:42:20;21.08;;;9.50;;
35839;SDS011;35514;50.504;30.500;2023-03-20T11:44:55;20.20;;;9.48;;
35839;SDS011;35514;50.504;30.500;2023-03-20T11:47:24;16.55;;;10.10;;
35839;SDS011;35514;50.504;30.500;2023-03-20T11:49:53;16.67;;;10.05;;
35839;SDS011;35514;50.504;30.500;2023-03-20T11:52:21;19.73;;;10.38;;
35839;SDS011;35514;50.504;30.500;2023-03-20T11:54:52;24.23;;;10.23;;
35839;SDS011;35514;50.504;30.500;2023-03-20T11:57:28;17.92;;;9.65;;
35839;SDS011;35514;50.504;30.500;2023-03-20T11:59:59;20.13;;;10.38;;
35839;SDS011;35514;50.504;30.500;2023-03-20T12:02:27;19.95;;;10.00;;
35839;SDS011;35514;50.504;30.500;2023-03-20T12:04:57;17.42;;;9.68;;
35839;SDS011;35514;50.504;30.500;2023-03-20T12:07:26;21.20;;;8.98;;
35839;SDS011;35514;50.504;30.500;2023-03-20T12:09:58;18.50;;;10.13;;
35839;SDS011;35514;50.504;30.500;2023-03-20T12:12:31;18.65;;;9.30;;
35839;SDS011;35514;50.504;30.500;2023-03-20T12:15:02;15.27;;;9.18;;
35839;SDS011;35514;50.504;30.500;2023-03-20T12:17:37;13.25;;;8.10;;
35839;SDS011;35514;50.504;30.500;2023-03-20T12:20:10;19.17;;;9.13;;
35839;SDS011;35514;50.504;30.500;2023-03-20T12:22:41;15.38;;;8.23;;
35839;SDS011;35514;50.504;30.500;2023-03-20T12:25:17;16.58;;;9.10;;
35839;SDS011;35514;50.504;30.500;2023-03-20T12:27:46;15.27;;;8.85;;
35839;SDS011;35514;50.504;30.500;2023-03-20T12:30:16;14.57;;;8.10;;
35839;SDS011;35514;50.504;30.500;2023-03-20T12:32:47;18.75;;;8.02;;
35839;SDS011;35514;50.504;30.500;2023-03-20T12:35:19;17.90;;;8.55;;
35839;SDS011;35514;50.504;30.500;2023-03-20T12:37:49;17.17;;;8.27;;
35839;SDS011;35514;50.504;30.500;2023-03-20T12:40:18;12.32;;;7.43;;
35839;SDS011;35514;50.504;30.500;2023-03-20T12:42:56;15.05;;;8.50;;
35839;SDS011;35514;50.504;30.500;2023-03-20T12:45:25;21.48;;;8.38;;
35839;SDS011;35514;50.504;30.500;2023-03-20T12:47:59;17.88;;;7.60;;
35839;SDS011;35514;50.504;30.500;2023-03-20T12:50:29;19.05;;;7.93;;
35839;SDS011;35514;50.504;30.500;2023-03-20T12:53:26;17.37;;;7.70;;
35839;SDS011;35514;50.504;30.500;2023-03-20T12:55:59;17.67;;;8.02;;
35839;SDS011;35514;50.504;30.500;2023-03-20T12:58:31;16.52;;;7.43;;
35839;SDS011;35514;50.504;30.500;2023-03-20T13:01:02;15.05;;;7.47;;
35839;SDS011;35514;50.504;30.500;2023-03-20T13:03:33;21.92;;;8.85;;
35839;SDS011;35514;50.504;30.500;2023-03-20T13:06:08;12.93;;;7.80;;
35839;SDS011;35514;50.504;30.500;2023-03-20T13:08:40;15.30;;;7.47;;
35839;SDS011;35514;50.504;30.500;2023-03-20T13:11:15;15.68;;;7.72;;
35839;SDS011;35514;50.504;30.500;2023-03-20T13:13:46;17.98;;;8.00;;
35839;SDS011;35514;50.504;30.500;2023-03-20T13:16:19;18.33;;;8.55;;
35839;SDS011;35514;50.504;30.500;2023-03-20T13:18:51;14.43;;;6.97;;
35839;SDS011;35514;50.504;30.500;2023-03-20T13:21:23;16.25;;;7.65;;
35839;SDS011;35514;50.504;30.500;2023-03-20T13:23:58;18.42;;;8.48;;
35839;SDS011;35514;50.504;30.500;2023-03-20T13:26:33;21.40;;;9.95;;
35839;SDS011;35514;50.504;30.500;2023-03-20T13:29:05;16.90;;;8.00;;
35839;SDS011;35514;50.504;30.500;2023-03-20T13:31:41;22.65;;;9.00;;
35839;SDS011;35514;50.504;30.500;2023-03-20T13:34:18;27.85;;;10.25;;
35839;SDS011;35514;50.504;30.500;2023-03-20T13:36:54;17.45;;;9.55;;
35839;SDS011;35514;50.504;30.500;2023-03-20T13:39:32;29.05;;;10.68;;
35839;SDS011;35514;50.504;30.500;2023-03-20T13:42:03;26.25;;;11.40;;
35839;SDS011;35514;50.504;30.500;2023-03-20T13:44:32;23.58;;;10.75;;
35839;SDS011;35514;50.504;30.500;2023-03-20T13:47:02;27.70;;;12.13;;
35839;SDS011;35514;50.504;30.500;2023-03-20T13:49:32;29.60;;;15.15;;
35839;SDS011;35514;50.504;30.500;2023-03-20T13:52:02;28.00;;;13.98;;
35839;SDS011;35514;50.504;30.500;2023-03-20T13:54:39;30.17;;;13.65;;
35839;SDS011;35514;50.504;30.500;2023-03-20T13:57:11;28.48;;;12.48;;
35839;SDS011;35514;50.504;30.500;2023-03-20T13:59:51;29.70;;;15.13;;
35839;SDS011;35514;50.504;30.500;2023-03-20T14:02:26;27.90;;;13.35;;
35839;SDS011;35514;50.504;30.500;2023-03-20T14:04:57;29.60;;;13.15;;
35839;SDS011;35514;50.504;30.500;2023-03-20T14:10:34;30.85;;;12.25;;
35839;SDS011;35514;50.504;30.500;2023-03-20T14:13:10;27.77;;;12.60;;
35839;SDS011;35514;50.504;30.500;2023-03-20T14:15:40;28.55;;;12.82;;
35839;SDS011;35514;50.504;30.500;2023-03-20T14:18:12;26.13;;;11.40;;
35839;SDS011;35514;50.504;30.500;2023-03-20T14:21:08;32.13;;;12.80;;
35839;SDS011;35514;50.504;30.500;2023-03-20T14:23:38;28.05;;;12.02;;
35839;SDS011;35514;50.504;30.500;2023-03-20T14:26:07;27.83;;;12.07;;
35839;SDS011;35514;50.504;30.500;2023-03-20T14:28:50;27.35;;;11.45;;
35839;SDS011;35514;50.504;30.500;2023-03-20T14:31:23;27.83;;;12.68;;
35839;SDS011;35514;50.504;30.500;2023-03-20T14:33:58;28.45;;;12.15;;
35839;SDS011;35514;50.504;30.500;2023-03-20T14:36:27;31.42;;;12.75;;
35839;SDS011;35514;50.504;30.500;2023-03-20T14:39:09;29.98;;;14.10;;
35839;SDS011;35514;50.504;30.500;2023-03-20T14:41:52;33.25;;;13.98;;
35839;SDS011;35514;50.504;30.500;2023-03-20T14:44:26;34.25;;;13.38;;
35839;SDS011;35514;50.504;30.500;2023-03-20T14:46:57;33.05;;;13.43;;
35839;SDS011;35514;50.504;30.500;2023-03-20T14:49:33;27.88;;;14.43;;
35839;SDS011;35514;50.504;30.500;2023-03-20T14:52:09;31.00;;;13.30;;